• Join FlightAware (Why Join?)
  • Login
  • US Flag 
10:58PM EDT


 

Airport Tracker/Info


-or-


 

Live Flight TrackerFlight Track Log ✈ UPS213 ✈ 21-Mar-2014 ✈ KSDF - EDDK / CGN

Flight Track Log - Related Links

Times and Time Zones

All times are in EDT time to prevent confusion due to time zone crossing. See the UPS213 flight status page for this flight to view local times or setup timezone preferences in your user account.

Time Position Orientation Groundspeed Altitude Reporting Facility
EDT Latitude Longitude Course Direction KTS MPH feet Rate Location/Type
05:05AM 38.0856 -85.7052 157° South 264 304 3,000  Level FlightAware ADS-B (KBRY)
05:06AM 38.0500 -85.6227 76° East 311 358 5,500 2,640 Climbing FlightAware ADS-B (KBRY)
05:07AM 38.1104 -85.5474 36° Northeast 309 356 8,300 2,400 Climbing FlightAware ADS-B (KBRY)
05:08AM 38.1790 -85.4816 37° Northeast 341 392 10,400 1,740 Climbing FlightAware ADS-B (KBRY)
05:09AM 38.2646 -85.4039 35° Northeast 389 448 11,800 2,100 Climbing FlightAware ADS-B (KBRY)
05:10AM 38.3575 -85.3188 35° Northeast 392 451 14,800 2,220 Climbing FlightAware ADS-B (KBRY)
05:11AM 38.4477 -85.2322 38° Northeast 421 484 16,500 1,800 Climbing FlightAware ADS-B (KBRY)
05:12AM 38.5165 -85.1043 64° Northeast 462 532 18,400 1,440 Climbing FlightAware ADS-B (KBRY)
05:13AM 38.5710 -84.9466 68° East 497 572 19,500 1,200 Climbing FlightAware ADS-B (KBRY)
05:14AM 38.5973 -84.8651 68° East 506 582 20,300 1,560 Climbing FlightAware ADS-B (KCVG)
05:14AM 38.6243 -84.7816 67° East 511 588 21,100 1,380 Climbing FlightAware ADS-B (KBRY)
05:15AM 38.6579 -84.6790 68° East 525 604 21,900 1,260 Climbing FlightAware ADS-B (KCVG)
05:16AM 38.6895 -84.5818 67° East 533 613 22,600 1,320 Climbing FlightAware ADS-B (KCVG)
05:16AM 38.7191 -84.4907 68° East 539 620 23,300 1,320 Climbing FlightAware ADS-B (KPMH)
05:17AM 38.7495 -84.3969 68° East 544 626 24,000 1,320 Climbing FlightAware ADS-B (KPMH)
05:17AM 38.7799 -84.3029 68° East 549 632 24,700 1,320 Climbing FlightAware ADS-B (KPMH)
05:18AM 38.7919 -84.2654 68° East 553 636 25,600 1,500 Climbing FlightAware ADS-B (KCVG)
05:19AM 38.8570 -84.0625 68° East 554 638 26,700 1,860 Climbing FlightAware ADS-B (KPMH)
05:19AM 38.8952 -83.9429 68° East 546 628 28,100 1,860 Climbing FlightAware ADS-B (KPMH)
05:20AM 38.9207 -83.8624 68° East 545 627 28,900 1,320 Climbing FlightAware ADS-B (KPMH)
05:20AM 38.9524 -83.7625 68° East 546 628 29,500 1,380 Climbing FlightAware ADS-B (KPMH)
05:21AM 38.9894 -83.6450 68° East 540 621 30,500 1,500 Climbing FlightAware ADS-B (KPMH)
05:21AM 39.0193 -83.5501 68° East 538 619 31,300 1,080 Climbing FlightAware ADS-B (KPMH)
05:22AM 39.0560 -83.4333 68° East 543 625 31,800 720 Climbing FlightAware ADS-B (KPMH)
05:23AM 39.0851 -83.3399 68° East 545 627 32,200 1,140 Climbing FlightAware ADS-B (KPMH)
05:23AM 39.1086 -83.2642 68° East 539 620 33,000 660 Climbing FlightAware ADS-B (KPMH)
05:24AM 39.1494 -83.1329 68° East 539 620 33,000  Level FlightAware ADS-B (KPMH)
05:24AM 39.1770 -83.0438 68° East 541 623 33,000  Level FlightAware ADS-B (KPMH)
05:25AM 39.2022 -82.9622 68° East 541 623 33,000  Level FlightAware ADS-B (KPMH)
05:25AM 39.2388 -82.8423 69° East 537 618 33,000  Level FlightAware ADS-B (KPMH)
05:26AM 39.2685 -82.7454 68° East 536 617 33,000  Level FlightAware ADS-B (KPMH)
05:26AM 39.2942 -82.6613 69° East 538 619 33,000  Level FlightAware ADS-B (KPMH)
05:27AM 39.3233 -82.5649 69° East 539 620 33,000  Level FlightAware ADS-B (KPMH)
05:27AM 39.3511 -82.4736 69° East 537 618 33,000  Level FlightAware ADS-B (KPMH)
05:28AM 39.3847 -82.3625 69° East 538 619 33,000  Level FlightAware ADS-B (KPMH)
05:29AM 39.4114 -82.2729 69° East 538 619 33,000  Level FlightAware ADS-B (KPMH)
05:29AM 39.4391 -82.1798 69° East 538 619 33,000  Level FlightAware ADS-B (KPMH)
05:30AM 39.4669 -82.0863 69° East 540 621 33,000  Level FlightAware ADS-B (KPMH)
05:30AM 39.4972 -81.9847 69° East 542 624 33,000  Level FlightAware ADS-B (KPMH)
05:31AM 39.5411 -81.8359 69° East 543 625 33,000 60 Level FlightAware ADS-B (KPMH)
05:32AM 39.5743 -81.7231 69° East 543 625 33,100  Climbing FlightAware ADS-B (KPMH)
05:33AM 39.6217 -81.5622 69° East 541 623 33,000 -60 Descending Cleveland Center
05:34AM 39.6744 -81.3803 69° East 541 623 33,000  Level Cleveland Center
05:35AM 39.7272 -81.1981 69° East 540 621 33,000  Level Cleveland Center
05:36AM 39.7814 -81.0069 70° East 539 620 33,000  Level Indianapolis Center
05:41AM 40.0643 -79.9990 70° East 549 632 33,000  Level FlightAware ADS-B (KAGC)
05:41AM 40.0751 -79.9591 70° East 550 633 33,000  Level FlightAware ADS-B
05:42AM 40.0809 -79.9382 71° East 549 632 33,000  Level FlightAware ADS-B
05:43AM 40.1507 -79.6811 70° East 549 632 33,000  Level FlightAware ADS-B
05:43AM 40.1599 -79.6471 71° East 546 628 33,000  Level FlightAware ADS-B
05:44AM 40.2036 -79.4858 71° East 545 627 33,000  Level FlightAware ADS-B
05:45AM 40.2402 -79.3492 71° East 544 626 33,000  Level FlightAware ADS-B
05:45AM 40.2586 -79.2809 71° East 541 623 33,000  Level FlightAware ADS-B
05:46AM 40.3155 -79.0659 71° East 539 620 33,000  Level FlightAware ADS-B
05:47AM 40.3425 -78.9642 71° East 541 623 33,000  Level Cleveland Center
05:48AM 40.3908 -78.7814 71° East 539 620 33,000  Level Cleveland Center
05:49AM 40.4381 -78.5989 71° East 537 618 33,000  Level Cleveland Center
05:50AM 40.4953 -78.3789 71° East 537 618 33,000  Level Cleveland Center
05:56AM 40.7693 -77.2924 68° East 532 612 33,100  Climbing FlightAware ADS-B (KPHL)
05:57AM 40.8455 -77.1202 59° Northeast 520 598 33,000 -60 Descending FlightAware ADS-B (KPHL)
05:58AM 40.9561 -76.8808 59° Northeast 520 598 33,000  Level FlightAware ADS-B (KPHL)
05:59AM 40.9950 -76.7970 58° Northeast 522 601 33,000  Level FlightAware ADS-B (KPEO)
05:59AM 41.0155 -76.7514 59° Northeast 522 601 33,000  Level FlightAware ADS-B (KPHL)
05:59AM 41.0320 -76.7160 59° Northeast 523 602 33,000 180 Level FlightAware ADS-B (KPEO)
05:59AM 41.0479 -76.6801 59° Northeast 522 601 33,100 180 Climbing FlightAware ADS-B (KPHL)
06:00AM 41.0690 -76.6330 58° Northeast 524 603 33,100  Level FlightAware ADS-B (KPEO)
06:00AM 41.0870 -76.5942 59° Northeast 523 602 33,100  Level FlightAware ADS-B (KPHL)
06:00AM 41.1060 -76.5530 58° Northeast 523 602 33,100  Level FlightAware ADS-B (KPEO)
06:01AM 41.1520 -76.4530 59° Northeast 523 602 33,100 -180 Level FlightAware ADS-B (KPEO)
06:01AM 41.1633 -76.4269 59° Northeast 522 601 33,000 -240 Descending FlightAware ADS-B (KPHL)
06:01AM 41.1890 -76.3710 59° Northeast 521 600 33,000  Level FlightAware ADS-B (KPEO)
06:02AM 41.2155 -76.3113 59° Northeast 518 596 33,000  Level FlightAware ADS-B (KPHL)
06:02AM 41.2330 -76.2730 59° Northeast 519 597 33,000  Level FlightAware ADS-B (KPEO)
06:02AM 41.2700 -76.1910 58° Northeast 520 598 33,000  Level FlightAware ADS-B (KPEO)
06:03AM 41.3150 -76.0910 58° Northeast 522 601 33,000  Level FlightAware ADS-B (KPEO)
06:03AM 41.3590 -75.9950 59° Northeast 525 604 33,000 60 Level FlightAware ADS-B (KPEO)
06:04AM 41.4030 -75.8950 59° Northeast 525 604 33,100  Climbing FlightAware ADS-B (KPEO)
06:05AM 41.4480 -75.7930 59° Northeast 521 600 33,000 -120 Descending FlightAware ADS-B (KPEO)
06:05AM 41.5060 -75.6610 59° Northeast 519 597 33,000  Level FlightAware ADS-B (KPEO)
06:10AM 41.8220 -74.9380 59° Northeast 525 604 33,100  Climbing FlightAware ADS-B (KPEO)
06:10AM 41.8590 -74.8540 59° Northeast 529 609 33,000 -60 Descending FlightAware ADS-B (KPEO)
06:12AM 41.9917 -74.5439 60° Northeast 525 604 33,000  Level Boston Center
06:13AM 42.0603 -74.3856 60° Northeast 533 613 33,100  Climbing Boston Center
06:14AM 42.1328 -74.2128 60° Northeast 533 613 33,000 -60 Descending Boston Center
06:15AM 42.2053 -74.0411 60° Northeast 530 610 33,000  Level Boston Center
06:16AM 42.2753 -73.8725 61° Northeast 521 600 33,000  Level Boston Center
06:17AM 42.3456 -73.7031 61° Northeast 517 595 33,000  Level Boston Center
06:18AM 42.4156 -73.5331 61° Northeast 517 595 33,000  Level Boston Center
06:19AM 42.4864 -73.3589 61° Northeast 520 598 33,100  Climbing Boston Center
06:20AM 42.5572 -73.1828 61° Northeast 525 604 33,000 -60 Descending Boston Center
06:21AM 42.6350 -72.9878 61° Northeast 525 604 33,000  Level Boston Center
06:22AM 42.7056 -72.8178 60° Northeast 518 596 33,000  Level Boston Center
06:23AM 42.7750 -72.6444 61° Northeast 521 600 33,000  Level Boston Center
06:24AM 42.8453 -72.4675 62° Northeast 529 609 33,000  Level Boston Center
06:25AM 42.9144 -72.2939 61° Northeast 528 608 33,000  Level Boston Center
06:26AM 42.9792 -72.1297 62° Northeast 528 608 33,000  Level Boston Center
06:27AM 43.0619 -71.9169 62° Northeast 528 608 33,000  Level Boston Center
06:28AM 43.1303 -71.7378 62° Northeast 528 608 33,000  Level Boston Center
06:29AM 43.2000 -71.5606 62° Northeast 529 609 33,000  Level Boston Center
06:30AM 43.2664 -71.3844 63° Northeast 526 605 33,000  Level Boston Center
06:31AM 43.3350 -71.2072 62° Northeast 526 605 33,000  Level Boston Center
06:37AM 43.7196 -70.1731 63° Northeast 524 603 33,000  Level FlightAware ADS-B (CYQI)
06:39AM 43.8535 -69.8046 63° Northeast 523 602 33,000  Level FlightAware ADS-B (CYQI)
06:40AM 43.9169 -69.6283 64° Northeast 525 604 33,100 60 Climbing FlightAware ADS-B (CYQI)
06:41AM 43.9553 -69.5208 64° Northeast 525 604 33,100 -120 Level FlightAware ADS-B (CYQI)
06:41AM 43.9941 -69.4124 64° Northeast 528 608 33,000 -120 Descending FlightAware ADS-B (CYQI)
06:42AM 44.0347 -69.2980 64° Northeast 528 608 33,000  Level FlightAware ADS-B (CYQI)
06:43AM 44.0671 -69.2067 64° Northeast 529 609 33,000  Level FlightAware ADS-B (CYQI)
06:43AM 44.1061 -69.0956 64° Northeast 529 609 33,000  Level FlightAware ADS-B (CYQI)
06:44AM 44.1330 -69.0184 64° Northeast 531 611 33,000  Level FlightAware ADS-B (CYQI)
06:44AM 44.1859 -68.8675 64° Northeast 531 611 33,000 60 Level FlightAware ADS-B (CYQI)
06:45AM 44.2191 -68.7721 64° Northeast 530 610 33,100 60 Climbing FlightAware ADS-B (CYQI)
06:45AM 44.2506 -68.6819 64° Northeast 531 611 33,100 -120 Level FlightAware ADS-B (CYQI)
06:46AM 44.2907 -68.5655 64° Northeast 531 611 33,000 -120 Descending FlightAware ADS-B (CYQI)
06:47AM 44.3232 -68.4714 64° Northeast 530 610 33,000  Level FlightAware ADS-B (KBGR)
06:47AM 44.3660 -68.3459 64° Northeast 531 611 33,000  Level FlightAware ADS-B (KBGR)
06:48AM 44.3944 -68.2626 65° Northeast 531 611 33,000  Level FlightAware ADS-B (CYQI)
06:48AM 44.4349 -68.1434 64° Northeast 531 611 33,000  Level FlightAware ADS-B (CYQI)
06:49AM 44.4806 -68.0094 65° Northeast 531 611 33,000  Level FlightAware ADS-B (CYQI)
06:50AM 44.5181 -67.8977 65° Northeast 530 610 33,000  Level FlightAware ADS-B (CYQI)
06:50AM 44.5506 -67.8013 65° Northeast 531 611 33,000  Level FlightAware ADS-B (CYQI)
06:51AM 44.5866 -67.6944 65° Northeast 532 612 33,000  Level FlightAware ADS-B (CYSG)
06:51AM 44.6179 -67.6000 65° Northeast 532 612 33,000  Level FlightAware ADS-B (CYQI)
06:52AM 44.6625 -67.4645 66° East 535 616 33,000  Level FlightAware ADS-B (CYQI)
06:53AM 44.6999 -67.3508 65° Northeast 536 617 33,000  Level FlightAware ADS-B (CYQI)
06:53AM 44.7441 -67.2162 65° Northeast 538 619 33,000  Level FlightAware ADS-B (CYQI)
06:54AM 44.7775 -67.1144 65° Northeast 541 623 33,000  Level FlightAware ADS-B (CYQI)
06:56AM 44.8065 -67.0261 66° East 543 625 33,100  Climbing FlightAware ADS-B (CYQI)
06:58AM 45.0412 -66.2934 66° East 530 610 33,000 -60 Descending FlightAware ADS-B (CYQI)
06:59AM 45.0734 -66.1922 66° East 530 610 33,000  Level FlightAware ADS-B (CYQI)
06:59AM 45.1132 -66.0661 66° East 529 609 33,000  Level FlightAware ADS-B (CYQI)
07:00AM 45.1425 -65.9714 66° East 532 612 33,000  Level FlightAware ADS-B (CYQI)
07:00AM 45.1847 -65.8365 66° East 538 619 33,000  Level FlightAware ADS-B (CYQI)
07:01AM 45.2157 -65.7373 66° East 541 623 33,000 60 Level FlightAware ADS-B (CYQI)
07:01AM 45.2451 -65.6412 67° East 543 625 33,100  Climbing FlightAware ADS-B (CYQI)
07:02AM 45.2887 -65.4990 66° East 545 627 33,000  Descending FlightAware ADS-B (CYQI)
07:03AM 45.3192 -65.3999 67° East 544 626 33,100  Climbing FlightAware ADS-B (CYQI)
07:03AM 45.3628 -65.2566 67° East 542 624 33,000 -120 Descending FlightAware ADS-B (CYQI)
07:04AM 45.4004 -65.1328 67° East 542 624 33,000  Level FlightAware ADS-B (CYQI)
07:05AM 45.4322 -65.0275 67° East 542 624 33,000  Level FlightAware ADS-B (CYQI)
07:05AM 45.4697 -64.9026 67° East 543 625 33,000  Level FlightAware ADS-B (CYQI)
07:06AM 45.5411 -64.6626 67° East 543 625 33,000  Level FlightAware ADS-B (CYQI)
07:07AM 45.5667 -64.5500 67° East 550 633 33,000  Level Gander Center
07:08AM 45.6167 -64.3333 72° East 550 633 33,000  Level Gander Center
07:09AM 45.6667 -64.1500 69° East 550 633 33,000  Level Gander Center
07:10AM 45.7500 -63.9333 61° Northeast 550 633 33,000  Level Gander Center
07:11AM 45.8000 -63.7167 72° East 550 633 33,000  Level Gander Center
07:12AM 45.8500 -63.5167 70° East 550 633 33,000  Level Gander Center
07:13AM 45.9000 -63.3167 70° East 550 633 33,000  Level Gander Center
07:14AM 45.9667 -63.1333 62° Northeast 550 633 33,000  Level Gander Center
07:15AM 46.0333 -62.9167 66° East 550 633 33,000  Level Gander Center
07:16AM 46.0833 -62.7333 68° East 550 633 33,000  Level Gander Center
07:17AM 46.1333 -62.5167 72° East 550 633 33,000  Level Gander Center
07:18AM 46.1833 -62.3000 71° East 550 633 33,000  Level Gander Center
07:19AM 46.2333 -62.0833 71° East 550 633 33,000  Level Gander Center
07:20AM 46.3000 -61.8833 64° Northeast 550 633 33,000  Level Gander Center
07:21AM 46.3667 -61.7000 62° Northeast 550 633 33,000  Level Gander Center
07:22AM 46.4167 -61.4833 71° East 550 633 33,000  Level Gander Center
07:23AM 46.4667 -61.2833 70° East 540 621 33,000  Level Gander Center
07:24AM 46.5167 -61.0667 71° East 540 621 33,000  Level Gander Center
07:25AM 46.5667 -60.8667 70° East 530 610 33,000  Level Gander Center
07:26AM 46.6167 -60.6500 71° East 540 621 33,000  Level Moncton Center
07:27AM 46.6667 -60.4500 70° East 550 633 33,000  Level Gander Center
07:28AM 46.7333 -60.2667 62° Northeast 560 644 33,000  Level Gander Center
07:29AM 46.8167 -60.0333 62° Northeast 560 644 33,000  Level Gander Center
07:30AM 46.8833 -59.8667 60° Northeast 550 633 33,000  Level Gander Center
07:31AM 46.9667 -59.6500 61° Northeast 550 633 33,000  Level Gander Center
07:32AM 47.0500 -59.4667 56° Northeast 560 644 33,000  Level Gander Center
07:33AM 47.1167 -59.2500 66° East 550 633 33,000  Level Gander Center
07:34AM 47.1833 -59.0500 64° Northeast 550 633 33,000  Level Gander Center
07:35AM 47.2667 -58.8667 56° Northeast 550 633 33,000  Level Gander Center
07:36AM 47.3333 -58.6667 64° Northeast 560 644 33,000  Level Gander Center
07:37AM 47.4167 -58.4667 58° Northeast 550 633 33,000  Level Gander Center
07:38AM 47.4667 -58.2667 70° East 560 644 33,000  Level Gander Center
07:39AM 47.5500 -58.0667 58° Northeast 550 633 33,000  Level Gander Center
07:40AM 47.6333 -57.8667 58° Northeast 550 633 33,000  Level Gander Center
07:41AM 47.7000 -57.6500 65° Northeast 550 633 33,000  Level Gander Center
07:42AM 47.7667 -57.4500 64° Northeast 550 633 33,100  Climbing Gander Center
07:43AM 47.8333 -57.2500 64° Northeast 560 644 33,000 -60 Descending Gander Center
07:44AM 47.9167 -57.0500 58° Northeast 560 644 33,000  Level Gander Center
07:45AM 47.9833 -56.8333 65° Northeast 560 644 33,100  Climbing Gander Center
07:46AM 48.0500 -56.6333 63° Northeast 560 644 33,000 420 Descending Gander Center
07:47AM 48.1333 -56.4167 60° Northeast 560 644 34,000 960 Climbing Gander Center
07:48AM 48.1833 -56.2167 69° East 560 644 35,000 480 Climbing Gander Center
07:49AM 48.2500 -56.0167 63° Northeast 560 644 35,000  Level Gander Center
07:50AM 48.3167 -55.8000 65° Northeast 560 644 35,000  Level Gander Center
07:51AM 48.3833 -55.5667 67° East 560 644 35,000  Level Gander Center
07:52AM 48.4667 -55.3833 56° Northeast 560 644 35,000  Level Gander Center
07:53AM 48.5167 -55.1667 71° East 560 644 35,000  Level Gander Center
07:54AM 48.5833 -54.9333 67° East 560 644 35,000  Level Gander Center
07:55AM 48.6500 -54.7500 61° Northeast 560 644 35,000  Level Gander Center
07:56AM 48.7167 -54.5167 67° East 560 644 35,000  Level Gander Center
07:57AM 48.7833 -54.3333 61° Northeast 560 644 35,000  Level Gander Center
07:58AM 48.8500 -54.0833 68° East 560 644 35,000  Level Gander Center
07:59AM 48.9000 -53.8667 71° East 560 644 35,100  Climbing Gander Center
08:00AM 48.9833 -53.6667 58° Northeast 560 644 35,000 -60 Descending Gander Center
08:01AM 49.0333 -53.4500 71° East 560 644 35,000  Level Gander Center
08:02AM 49.1000 -53.2333 65° Northeast 560 644 35,000  Level Gander Center
08:03AM 49.1667 -53.0167 65° Northeast 560 644 35,000  Level Gander Center
08:04AM 49.2333 -52.7667 68° East 560 644 35,000  Level Gander Center
08:05AM 49.2833 -52.5500 70° East 560 644 35,000  Level Gander Center
08:06AM 49.3500 -52.3667 61° Northeast 560 644 35,000  Level Gander Center
08:07AM 49.4167 -52.1167 68° East 560 644 35,000  Level Gander Center
08:08AM 49.4667 -51.9000 70° East 570 656 35,000  Level Gander Center
08:09AM 49.5333 -51.6500 68° East 570 656 35,000  Level Gander Center
08:10AM 49.6000 -51.4333 65° Northeast 580 667 35,100  Climbing Gander Center
08:11AM 49.6667 -51.2167 65° Northeast 580 667 35,100  Level Gander Center
08:12AM 49.7167 -50.9667 73° East 580 667 35,100 -60 Level Gander Center
08:13AM 49.7667 -50.7500 70° East 580 667 35,000 -60 Descending Gander Center
08:14AM 49.8333 -50.5000 67° East 580 667 35,000  Level Gander Center
08:15AM 49.9000 -50.2833 64° Northeast 580 667 35,000  Level Gander Center
08:16AM 49.9500 -50.0500 72° East 570 656 35,000  Level Gander Center
08:17AM 50.0000 -49.8333 70° East 570 656 35,000  Level Gander Center
08:18AM 50.0333 -49.5833 78° East 570 656 35,000  Level Gander Center
08:20AM 50.0833 -49.1833 79° East 570 656 35,000  Level Gander Center
08:21AM 50.1333 -48.9333 73° East 570 656 35,000  Level Gander Center
08:22AM 50.1667 -48.7167 76° East 570 656 35,000  Level Gander Center
08:23AM 50.2000 -48.4667 78° East 570 656 35,000  Level Gander Center
08:24AM 50.2167 -48.2167 84° East 560 644 35,000  Level Gander Center
08:25AM 50.2667 -47.9167 75° East 550 633 35,000  Level Gander Center
08:26AM 50.2833 -47.6833 84° East 570 656 35,000  Level Gander Center
08:28AM 50.3419 -47.3567 74° East  Level FlightAware Approximate
08:35AM 50.5283 -45.7968 79° East  Level FlightAware Approximate
08:36AM 50.5521 -45.5727 80° East  Level FlightAware Approximate
08:37AM 50.5752 -45.3482 81° East  Level FlightAware Approximate
08:38AM 50.5974 -45.1235 81° East  Level FlightAware Approximate
08:39AM 50.6192 -44.8985 81° East  Level FlightAware Approximate
08:40AM 50.6406 -44.6733 81° East  Level FlightAware Approximate
08:41AM 50.6615 -44.4480 82° East  Level FlightAware Approximate
08:42AM 50.6820 -44.2224 82° East  Level FlightAware Approximate
08:43AM 50.7020 -43.9966 82° East  Level FlightAware Approximate
08:44AM 50.7216 -43.7707 82° East  Level FlightAware Approximate
08:45AM 50.7412 -43.5446 82° East  Level FlightAware Approximate
08:46AM 50.7610 -43.3185 82° East  Level FlightAware Approximate
08:47AM 50.7804 -43.0922 82° East  Level FlightAware Approximate
08:48AM 50.7994 -42.8657 82° East  Level FlightAware Approximate
08:49AM 50.8178 -42.6391 83° East  Level FlightAware Approximate
08:50AM 50.8359 -42.4122 83° East  Level FlightAware Approximate
08:51AM 50.8535 -42.1852 83° East  Level FlightAware Approximate
08:52AM 50.8707 -41.9580 83° East  Level FlightAware Approximate
08:53AM 50.8874 -41.7307 83° East  Level FlightAware Approximate
08:54AM 50.9037 -41.5032 83° East  Level FlightAware Approximate
08:55AM 50.9196 -41.2755 84° East  Level FlightAware Approximate
08:56AM 50.9350 -41.0477 84° East  Level FlightAware Approximate
08:57AM 50.9499 -40.8197 84° East  Level FlightAware Approximate
08:58AM 50.9645 -40.5916 84° East  Level FlightAware Approximate
08:59AM 50.9785 -40.3633 84° East  Level FlightAware Approximate
09:00AM 50.9922 -40.1350 84° East  Level FlightAware Approximate
09:01AM 51.0129 -39.9083 77° East  Level FlightAware Approximate
09:02AM 51.0440 -39.6841 77° East  Level FlightAware Approximate
09:03AM 51.0748 -39.4596 78° East  Level FlightAware Approximate
09:04AM 51.1051 -39.2348 78° East  Level FlightAware Approximate
09:05AM 51.1349 -39.0097 78° East  Level FlightAware Approximate
09:06AM 51.1644 -38.7843 78° East  Level FlightAware Approximate
09:07AM 51.1944 -38.5589 78° East  Level FlightAware Approximate
09:08AM 51.2241 -38.3333 78° East  Level FlightAware Approximate
09:09AM 51.2534 -38.1074 78° East  Level FlightAware Approximate
09:10AM 51.2822 -37.8813 78° East  Level FlightAware Approximate
09:11AM 51.3106 -37.6548 79° East  Level FlightAware Approximate
09:12AM 51.3386 -37.4281 79° East  Level FlightAware Approximate
09:13AM 51.3661 -37.2011 79° East  Level FlightAware Approximate
09:14AM 51.3932 -36.9738 79° East  Level FlightAware Approximate
09:15AM 51.4198 -36.7462 79° East  Level FlightAware Approximate
09:16AM 51.4460 -36.5184 79° East  Level FlightAware Approximate
09:17AM 51.4718 -36.2904 80° East  Level FlightAware Approximate
09:18AM 51.4971 -36.0620 80° East  Level FlightAware Approximate
09:19AM 51.5220 -35.8335 80° East  Level FlightAware Approximate
09:20AM 51.5464 -35.6046 80° East  Level FlightAware Approximate
09:21AM 51.5704 -35.3756 80° East  Level FlightAware Approximate
09:22AM 51.5939 -35.1463 81° East  Level FlightAware Approximate
09:23AM 51.6170 -34.9167 81° East  Level FlightAware Approximate
09:24AM 51.6396 -34.6869 81° East  Level FlightAware Approximate
09:25AM 51.6618 -34.4569 81° East  Level FlightAware Approximate
09:26AM 51.6836 -34.2267 81° East  Level FlightAware Approximate
09:27AM 51.7049 -33.9963 81° East  Level FlightAware Approximate
09:28AM 51.7257 -33.7656 82° East  Level FlightAware Approximate
09:29AM 51.7461 -33.5348 82° East  Level FlightAware Approximate
09:30AM 51.7660 -33.3037 82° East  Level FlightAware Approximate
09:31AM 51.7855 -33.0724 82° East  Level FlightAware Approximate
09:32AM 51.8045 -32.8409 82° East  Level FlightAware Approximate
09:33AM 51.8231 -32.6093 83° East  Level FlightAware Approximate
09:34AM 51.8412 -32.3774 83° East  Level FlightAware Approximate
09:35AM 51.8589 -32.1454 83° East  Level FlightAware Approximate
09:36AM 51.8761 -31.9131 83° East  Level FlightAware Approximate
09:37AM 51.8928 -31.6807 83° East  Level FlightAware Approximate
09:38AM 51.9091 -31.4482 83° East  Level FlightAware Approximate
09:39AM 51.9249 -31.2155 84° East  Level FlightAware Approximate
09:40AM 51.9403 -30.9825 84° East  Level FlightAware Approximate
09:41AM 51.9552 -30.7495 84° East  Level FlightAware Approximate
09:42AM 51.9697 -30.5163 84° East  Level FlightAware Approximate
09:43AM 51.9837 -30.2829 84° East  Level FlightAware Approximate
09:44AM 51.9972 -30.0494 85° East  Level FlightAware Approximate
09:45AM 52.0077 -29.8155 86° East  Level FlightAware Approximate
09:46AM 52.0170 -29.5813 86° East  Level FlightAware Approximate
09:47AM 52.0259 -29.3471 86° East  Level FlightAware Approximate
09:48AM 52.0343 -29.1128 87° East  Level FlightAware Approximate
09:49AM 52.0422 -28.8783 87° East  Level FlightAware Approximate
09:50AM 52.0497 -28.6438 87° East  Level FlightAware Approximate
09:51AM 52.0567 -28.4093 87° East  Level FlightAware Approximate
09:52AM 52.0633 -28.1746 87° East  Level FlightAware Approximate
09:53AM 52.0694 -27.9399 87° East  Level FlightAware Approximate
09:54AM 52.0750 -27.7051 88° East  Level FlightAware Approximate
09:55AM 52.0801 -27.4703 88° East  Level FlightAware Approximate
09:56AM 52.0848 -27.2354 88° East  Level FlightAware Approximate
09:57AM 52.0890 -27.0005 88° East  Level FlightAware Approximate
09:58AM 52.0927 -26.7655 88° East  Level FlightAware Approximate
09:59AM 52.0960 -26.5305 89° East  Level FlightAware Approximate
10:00AM 52.0988 -26.2954 89° East  Level FlightAware Approximate
10:01AM 52.1012 -26.0604 89° East  Level FlightAware Approximate
10:02AM 52.1031 -25.8253 89° East  Level FlightAware Approximate
10:03AM 52.1045 -25.5901 89° East  Level FlightAware Approximate
10:04AM 52.1054 -25.3550 90° East  Level FlightAware Approximate
10:05AM 52.1059 -25.1199 90° East  Level FlightAware Approximate
10:06AM 52.1059 -24.8848 90° East  Level FlightAware Approximate
10:07AM 52.1054 -24.6496 90° East  Level FlightAware Approximate
10:08AM 52.1045 -24.4145 90° East  Level FlightAware Approximate
10:09AM 52.1031 -24.1794 90° East  Level FlightAware Approximate
10:10AM 52.1012 -23.9443 91° East  Level FlightAware Approximate
10:11AM 52.0989 -23.7092 91° East  Level FlightAware Approximate
10:12AM 52.0961 -23.4742 91° East  Level FlightAware Approximate
10:13AM 52.0928 -23.2392 91° East  Level FlightAware Approximate
10:14AM 52.0891 -23.0042 91° East  Level FlightAware Approximate
10:15AM 52.0849 -22.7693 92° East  Level FlightAware Approximate
10:16AM 52.0802 -22.5344 92° East  Level FlightAware Approximate
10:17AM 52.0751 -22.2995 92° East  Level FlightAware Approximate
10:18AM 52.0695 -22.0648 92° East  Level FlightAware Approximate
10:19AM 52.0634 -21.8300 92° East  Level FlightAware Approximate
10:20AM 52.0569 -21.5954 93° East  Level FlightAware Approximate
10:21AM 52.0499 -21.3608 93° East  Level FlightAware Approximate
10:22AM 52.0424 -21.1263 93° East  Level FlightAware Approximate
10:23AM 52.0345 -20.8919 93° East  Level FlightAware Approximate
10:24AM 52.0261 -20.6575 93° East  Level FlightAware Approximate
10:25AM 52.0172 -20.4233 93° East  Level FlightAware Approximate
10:26AM 52.0079 -20.1891 94° East  Level FlightAware Approximate
10:27AM 52.0017 -19.9550 86° East  Level FlightAware Approximate
10:28AM 52.0103 -19.7208 87° East  Level FlightAware Approximate
10:29AM 52.0183 -19.4866 87° East  Level FlightAware Approximate
10:30AM 52.0260 -19.2522 87° East  Level FlightAware Approximate
10:31AM 52.0331 -19.0178 87° East  Level FlightAware Approximate
10:32AM 52.0398 -18.7833 87° East  Level FlightAware Approximate
10:33AM 52.0460 -18.5487 87° East  Level FlightAware Approximate
10:34AM 52.0518 -18.3140 88° East  Level FlightAware Approximate
10:35AM 52.0571 -18.0793 88° East  Level FlightAware Approximate
10:36AM 52.0619 -17.8445 88° East  Level FlightAware Approximate
10:37AM 52.0663 -17.6098 88° East  Level FlightAware Approximate
10:38AM 52.0702 -17.3749 88° East  Level FlightAware Approximate
10:39AM 52.0736 -17.1400 89° East  Level FlightAware Approximate
10:40AM 52.0766 -16.9051 89° East  Level FlightAware Approximate
10:41AM 52.0791 -16.6701 89° East  Level FlightAware Approximate
10:42AM 52.0811 -16.4352 89° East  Level FlightAware Approximate
10:43AM 52.0826 -16.2002 89° East  Level FlightAware Approximate
10:44AM 52.0837 -15.9652 89° East  Level FlightAware Approximate
10:45AM 52.0844 -15.7301 90° East  Level FlightAware Approximate
10:46AM 52.0845 -15.4951 90° East  Level FlightAware Approximate
10:47AM 52.0842 -15.2601 90° East  Level FlightAware Approximate
10:48AM 52.0834 -15.0251 90° East  Level FlightAware Approximate
10:49AM 52.0828 -14.7901 90° East  Level FlightAware Approximate
10:50AM 52.0817 -14.5551 90° East  Level FlightAware Approximate
10:51AM 52.0802 -14.3201 91° East  Level FlightAware Approximate
10:52AM 52.0783 -14.0851 91° East  Level FlightAware Approximate
10:53AM 52.0758 -13.8502 91° East  Level FlightAware Approximate
10:54AM 52.0729 -13.6152 91° East  Level FlightAware Approximate
10:55AM 52.0695 -13.3804 91° East  Level FlightAware Approximate
10:56AM 52.0657 -13.1455 91° East  Level FlightAware Approximate
10:57AM 52.0614 -12.9107 92° East  Level FlightAware Approximate
10:57AM 51.9881 -11.7621 92° East 538 619 35,000  Level FlightAware ADS-B (EICK / ORK)
10:58AM 51.9776 -11.2466 92° East 545 627 35,000  Level FlightAware ADS-B (EICK / ORK)
10:58AM 51.9742 -11.0963 92° East 546 628 35,100 60 Climbing FlightAware ADS-B (EICK / ORK)
10:59AM 51.9711 -10.9625 92° East 548 631 35,100  Level FlightAware ADS-B (EICK / ORK)
10:59AM 51.9682 -10.8390 93° East 548 631 35,100  Level FlightAware ADS-B (EICK / ORK)
11:00AM 51.9645 -10.6974 92° East 545 627 35,100 -120 Level FlightAware ADS-B (EICK / ORK)
11:01AM 51.9605 -10.5513 93° East 544 626 35,000 -120 Descending FlightAware ADS-B (EICK / ORK)
11:01AM 51.9557 -10.3929 93° East 544 626 35,000  Level FlightAware ADS-B (EICK / ORK)
11:02AM 51.9525 -10.2701 93° East 544 626 35,000  Level FlightAware ADS-B (EICK / ORK)
11:02AM 51.9476 -10.1131 93° East 544 626 35,000  Level FlightAware ADS-B (EICK / ORK)
11:03AM 51.9435 -9.9848 93° East 543 625 35,000  Level FlightAware ADS-B (EICK / ORK)
11:04AM 51.9386 -9.8338 93° East 542 624 35,000  Level FlightAware ADS-B (EICK / ORK)
11:04AM 51.9340 -9.7017 93° East 541 623 35,000  Level FlightAware ADS-B (EICK / ORK)
11:05AM 51.9301 -9.5879 93° East 541 623 35,000  Level FlightAware ADS-B (EICK / ORK)
11:05AM 51.9242 -9.4222 94° East 541 623 35,000  Level FlightAware ADS-B (EICK / ORK)
11:06AM 51.9195 -9.3004 94° East 540 621 35,000  Level FlightAware ADS-B (EICK / ORK)
11:06AM 51.9146 -9.1826 94° East 540 621 35,000  Level FlightAware ADS-B (EICK / ORK)
11:07AM 51.9100 -9.0707 94° East 540 621 35,000  Level FlightAware ADS-B (EICK / ORK)
11:07AM 51.9010 -8.8643 94° East 540 621 35,000  Level FlightAware UK
11:08AM 51.8976 -8.7775 94° East 539 620 35,000  Level FlightAware ADS-B (EICK / ORK)
11:09AM 51.8907 -8.6200 94° East 539 620 35,000 60 Level FlightAware ADS-B (EICK / ORK)
11:09AM 51.8856 -8.5000 94° East 537 618 35,100  Climbing FlightAware ADS-B (EICK / ORK)
11:10AM 51.8804 -8.3848 95° East 538 619 35,000 -120 Descending FlightAware ADS-B (EGOD)
11:10AM 51.8733 -8.2350 94° East 538 619 35,000  Level FlightAware ADS-B (EGOD)
11:11AM 51.8709 -8.1792 94° East 542 624 35,000 -120 Level FlightAware ADS-B (EGOD)
11:11AM 51.8568 -7.9017 94° East 544 626 34,900  Descending FlightAware UK
11:12AM 51.8597 -7.9481 95° East 547 629 35,000 60 Climbing FlightAware ADS-B (EGOD)
11:12AM 51.8402 -7.6595 95° East 548 631 35,000  Level FlightAware UK
11:13AM 51.8337 -7.5375 95° East 548 631 35,000 120 Level FlightAware UK
11:13AM 51.8402 -7.5777 95° East 547 629 35,100 120 Climbing FlightAware ADS-B (EGOD)
11:14AM 51.8287 -7.3704 95° East 541 623 35,100 -120 Level FlightAware ADS-B (EGOD)
11:14AM 51.8209 -7.2262 95° East 534 615 35,000 -120 Descending FlightAware ADS-B (EGOD)
11:15AM 51.8137 -7.0941 95° East 532 612 35,000  Level FlightAware ADS-B
11:16AM 51.8042 -6.9289 95° East 533 613 35,000  Level FlightAware ADS-B
11:16AM 51.7975 -6.8150 95° East 538 619 35,000  Level FlightAware ADS-B
11:17AM 51.7934 -6.7020 92° East 544 626 35,000 60 Level FlightAware ADS-B
11:17AM 51.7894 -6.5672 93° East 545 627 35,100  Climbing FlightAware ADS-B (EGAA / BFS)
11:18AM 51.7830 -6.3889 94° East 544 626 35,000 -120 Descending FlightAware ADS-B (EGAA / BFS)
11:18AM 51.7775 -6.2440 94° East 542 624 35,000  Level FlightAware ADS-B
11:19AM 51.7720 -6.0942 93° East 543 625 35,000  Level FlightAware ADS-B
11:20AM 51.7673 -5.9738 94° East 545 627 35,000  Level FlightAware ADS-B
11:20AM 51.7614 -5.8329 94° East 547 629 35,000  Level FlightAware ADS-B
11:21AM 51.7561 -5.7127 94° East 547 629 35,000 60 Level FlightAware ADS-B
11:21AM 51.7507 -5.5845 94° East 548 631 35,100  Climbing FlightAware ADS-B (EGHD / PLH)
11:22AM 51.7454 -5.4588 93° East 547 629 35,000  Descending FlightAware ADS-B (EGHO)
11:22AM 51.7388 -5.3195 94° East 547 629 35,100 60 Climbing FlightAware ADS-B
11:23AM 51.7319 -5.1708 94° East 543 625 35,100 -120 Level FlightAware ADS-B
11:23AM 51.7261 -5.0541 94° East 541 623 35,000 -120 Descending FlightAware ADS-B (EGHD / PLH)
11:24AM 51.7194 -4.9159 94° East 540 621 35,000  Level FlightAware ADS-B
11:24AM 51.7134 -4.7913 95° East 541 623 35,000  Level FlightAware ADS-B (EGDX / DGX)
11:24AM 51.7118 -4.7594 95° East 541 623 35,000  Level FlightAware ADS-B
11:25AM 51.7106 -4.7364 95° East 541 623 35,000  Level FlightAware ADS-B (EGDX / DGX)
11:25AM 51.7078 -4.6806 94° East 541 623 35,000  Level FlightAware ADS-B (EGHH / BOH)
11:25AM 51.7027 -4.5834 95° East 544 626 35,000  Level FlightAware ADS-B (EGBS)
11:26AM 51.6973 -4.4807 95° East 547 629 35,000  Level FlightAware ADS-B
11:26AM 51.6945 -4.4265 95° East 548 631 35,000  Level FlightAware ADS-B (EGHD / PLH)
11:26AM 51.6873 -4.2964 95° East 549 632 35,000 60 Level FlightAware ADS-B (EGBS)
11:27AM 51.6807 -4.1778 95° East 549 632 35,100 60 Climbing FlightAware ADS-B (EGBS)
11:27AM 51.6734 -4.0485 95° East 549 632 35,100  Level FlightAware ADS-B (EGHD / PLH)
11:28AM 51.6693 -3.9769 95° East 549 632 35,100 -180 Level FlightAware ADS-B (EGBS)
11:28AM 51.6661 -3.9230 95° East 549 632 35,000 -300 Descending FlightAware ADS-B
11:28AM 51.6616 -3.8465 95° East 549 632 35,000  Level FlightAware ADS-B (EGHH / BOH)
11:29AM 51.6574 -3.7777 95° East 549 632 35,000  Level FlightAware ADS-B (EGHH / BOH)
11:29AM 51.6501 -3.6494 95° East 545 627 35,000  Level FlightAware ADS-B (EGBS)
11:29AM 51.6480 -3.6128 95° East 544 626 35,000  Level FlightAware ADS-B (EGDX / DGX)
11:29AM 51.6448 -3.5609 95° East 543 625 35,000  Level FlightAware ADS-B (EGHH / BOH)
11:30AM 51.6375 -3.4476 95° East 542 624 35,000  Level FlightAware ADS-B
11:30AM 51.6311 -3.3403 96° East 544 626 35,000  Level FlightAware ADS-B (EGHH / BOH)
11:31AM 51.6255 -3.2491 95° East 542 624 35,000  Level FlightAware ADS-B (EGUO)
11:31AM 51.6223 -3.1988 95° East 542 624 35,000  Level FlightAware ADS-B (EGHH / BOH)
11:31AM 51.6183 -3.1384 96° East 542 624 35,000  Level FlightAware ADS-B
11:31AM 51.6137 -3.0705 95° East 539 620 35,000  Level FlightAware ADS-B
11:32AM 51.6115 -3.0387 95° East 539 620 35,000  Level FlightAware ADS-B (EGHH / BOH)
11:32AM 51.6102 -3.0180 96° East 540 621 35,000  Level FlightAware ADS-B
11:32AM 51.6099 -3.0136 96° East 540 621 35,000  Level FlightAware ADS-B
11:32AM 51.6074 -2.9761 95° East 539 620 35,000  Level FlightAware ADS-B (EGHO)
11:32AM 51.6054 -2.9457 95° East 539 620 35,000  Level FlightAware ADS-B (EGNR / CEG)
11:32AM 51.6019 -2.8928 96° East 540 621 35,000  Level FlightAware ADS-B
11:32AM 51.6012 -2.8834 96° East 540 621 35,000  Level FlightAware ADS-B (EGBS)
11:33AM 51.5962 -2.8089 96° East 540 621 35,000  Level FlightAware ADS-B (EGHS)
11:33AM 51.5931 -2.7648 96° East 540 621 35,000  Level FlightAware ADS-B
11:33AM 51.5876 -2.6873 160° South 650 748 35,000  Level FlightAware ADS-B (EGGP / LPL)
11:33AM 51.5868 -2.6749 96° East 541 623 35,000  Level FlightAware ADS-B (EGBS)
11:33AM 51.5846 -2.6431 96° East 541 623 35,000  Level FlightAware ADS-B
11:33AM 51.5815 -2.5989 96° East 542 624 35,000  Level FlightAware ADS-B (EGBS)
11:34AM 51.5768 -2.5318 97° East 544 626 35,000  Level FlightAware ADS-B (EGBS)
11:34AM 51.5753 -2.5099 97° East 544 626 35,000  Level FlightAware ADS-B
11:34AM 51.5663 -2.3841 96° East 545 627 35,000  Level FlightAware ADS-B
11:35AM 51.5579 -2.2635 97° East 546 628 35,000  Level FlightAware ADS-B
11:35AM 51.5631 -2.3379 97° East 546 628 35,000  Level FlightAware ADS-B (EGLF / FAB)
11:35AM 51.5489 -2.1402 97° East 546 628 35,000 60 Level FlightAware ADS-B
11:36AM 51.5392 -2.0078 97° East 544 626 35,100 120 Climbing FlightAware ADS-B
11:36AM 51.5404 -2.0248 97° East 544 626 35,100  Level FlightAware ADS-B (EGHA)
11:36AM 51.5295 -1.8817 97° East 543 625 35,100  Level FlightAware ADS-B
11:36AM 51.5292 -1.8774 97° East 543 625 35,100  Level FlightAware ADS-B (EGDM)
11:37AM 51.5201 -1.7577 97° East 544 626 35,100  Level FlightAware ADS-B
11:37AM 51.5204 -1.7617 97° East 544 626 35,100 -240 Level FlightAware ADS-B (EGHA)
11:37AM 51.5103 -1.6308 97° East 544 626 35,000 -120 Descending FlightAware ADS-B
11:38AM 51.5007 -1.5075 97° East 544 626 35,000  Level FlightAware ADS-B
11:38AM 51.5026 -1.5311 97° East 544 626 35,000  Level FlightAware ADS-B (EGLF / FAB)
11:39AM 51.4903 -1.3777 97° East 543 625 35,000  Level FlightAware ADS-B
11:39AM 51.4894 -1.3673 97° East 543 625 35,000  Level FlightAware ADS-B (EGHH / BOH)
11:39AM 51.4803 -1.2538 97° East 542 624 35,000  Level FlightAware ADS-B
11:39AM 51.4790 -1.2378 97° East 543 625 35,000  Level FlightAware ADS-B (EGHA)
11:40AM 51.4700 -1.1274 98° East 543 625 35,000  Level FlightAware ADS-B
11:40AM 51.4676 -1.0983 98° East 543 625 35,000  Level FlightAware ADS-B
11:40AM 51.4627 -1.0388 97° East 541 623 35,000  Level FlightAware ADS-B (EGHH / BOH)
11:40AM 51.4580 -0.9846 98° East 542 624 35,000  Level FlightAware ADS-B
11:40AM 51.4569 -0.9718 97° East 541 623 35,000  Level FlightAware ADS-B (EGHI / SOU)
11:40AM 51.4536 -0.9326 97° East 541 623 35,000  Level FlightAware ADS-B (EGHH / BOH)
11:41AM 51.4479 -0.8640 98° East 541 623 35,000  Level FlightAware ADS-B
11:41AM 51.4475 -0.8594 98° East 541 623 35,000  Level FlightAware ADS-B
11:41AM 51.4440 -0.8187 97° East 539 620 35,000  Level FlightAware ADS-B (EGWC)
11:41AM 51.4377 -0.7445 98° East 539 620 35,000  Level FlightAware ADS-B
11:41AM 51.4357 -0.7220 98° East 539 620 35,000  Level FlightAware ADS-B (EGLF / FAB)
11:41AM 51.4380 -0.7484 97° East 540 621 35,000  Level FlightAware ADS-B
11:42AM 51.4272 -0.6234 98° East 539 620 35,000  Level FlightAware ADS-B
11:42AM 51.4232 -0.5763 97° East 541 623 35,000  Level FlightAware ADS-B
11:42AM 51.4163 -0.4973 98° East 539 620 35,000  Level FlightAware ADS-B
11:42AM 51.4163 -0.4973 97° East 538 619 35,000  Level FlightAware ADS-B
11:42AM 51.4126 -0.4566 97° East 537 618 35,000  Level FlightAware ADS-B
11:43AM 51.4106 -0.4338 97° East 537 618 35,000  Level FlightAware ADS-B (EGSR)
11:43AM 51.4055 -0.3766 98° East 538 619 35,000  Level FlightAware ADS-B
11:43AM 51.3964 -0.2752 98° East 539 620 35,000  Level FlightAware ADS-B
11:43AM 51.3941 -0.2508 98° East 539 620 35,000  Level FlightAware ADS-B
11:44AM 51.3877 -0.1802 98° East 539 620 35,000  Level FlightAware ADS-B
11:44AM 51.3828 -0.1262 98° East 539 620 35,000  Level FlightAware ADS-B
11:44AM 51.3771 -0.0634 98° East 538 619 35,000  Level FlightAware ADS-B
11:44AM 51.3717 -0.0044 98° East 538 619 35,000  Level FlightAware ADS-B
11:45AM 51.3675 0.0401 98° East 538 619 35,000  Level FlightAware ADS-B
11:45AM 51.3607 0.1131 98° East 539 620 35,000  Level FlightAware ADS-B
11:45AM 51.3549 0.1748 99° East 539 620 35,000  Level FlightAware ADS-B (EGWE)
11:45AM 51.3493 0.2332 99° East 539 620 35,000  Level FlightAware ADS-B
11:46AM 51.3450 0.2778 99° East 539 620 35,000  Level FlightAware ADS-B
11:46AM 51.3357 0.3740 99° East 540 621 35,000  Level FlightAware ADS-B
11:46AM 51.3282 0.4530 99° East 540 621 35,000  Level FlightAware ADS-B (EGLC / LCY)
11:46AM 51.3235 0.5022 99° East 540 621 35,000  Level FlightAware ADS-B
11:47AM 51.3161 0.5795 99° East 540 621 35,000  Level FlightAware ADS-B (EGLF / FAB)
11:47AM 51.3120 0.6221 99° East 540 621 35,000  Level FlightAware ADS-B
11:47AM 51.3083 0.6606 99° East 541 623 35,000  Level FlightAware ADS-B (EGSR)
11:47AM 51.3004 0.7402 99° East 541 623 35,000 120 Level FlightAware ADS-B
11:48AM 51.2901 0.8452 99° East 540 621 35,100 180 Climbing FlightAware ADS-B (EGKK / LGW)
11:48AM 51.2882 0.8638 99° East 540 621 35,100  Level FlightAware ADS-B
11:48AM 51.2786 0.9575 100° East 539 620 35,100  Level FlightAware ADS-B
11:49AM 51.2755 0.9847 100° East 538 619 35,100  Level FlightAware ADS-B
11:49AM 51.2702 1.0270 101° East 536 617 35,100  Level FlightAware ADS-B (EGKK / LGW)
11:49AM 51.2668 1.0516 102° East 537 618 35,100 -360 Level FlightAware ADS-B (EGLC / LCY)
11:49AM 51.2591 1.1060 103° East 536 617 35,000 -180 Descending FlightAware ADS-B
11:49AM 51.2466 1.1951 103° East 536 617 35,000  Level FlightAware ADS-B (EGKA / ESH)
11:50AM 51.2319 1.2997 103° East 536 617 35,000  Level FlightAware ADS-B (EGLC / LCY)
11:50AM 51.2184 1.3954 102° East 535 616 35,000  Level FlightAware ADS-B (EGMD / LYX)
11:50AM 51.2141 1.4251 103° East 537 618 35,000  Level FlightAware ADS-B (EGLC / LCY)
11:51AM 51.2085 1.4644 102° East 535 616 35,000  Level FlightAware ADS-B (EGKK / LGW)
11:51AM 51.1916 1.5839 103° East 536 617 35,000  Level FlightAware ADS-B (EGLC / LCY)
11:51AM 51.1830 1.6428 102° East 534 615 35,000  Level FlightAware ADS-B (EGHO)
11:51AM 51.1820 1.6485 104° East 535 616 35,000  Level FlightAware ADS-B
11:51AM 51.1813 1.6526 106° East 533 613 35,000  Level FlightAware ADS-B (EGKK / LGW)
11:52AM 51.1713 1.6986 111° Southeast 528 608 35,000  Level FlightAware ADS-B
11:52AM 51.1664 1.7178 111° Southeast 524 603 35,000  Level FlightAware ADS-B (EGHO)
11:52AM 51.1408 1.8170 112° Southeast 527 606 35,000  Level FlightAware ADS-B
11:53AM 51.1191 1.9015 113° Southeast 528 608 35,000  Level FlightAware ADS-B (EGLC / LCY)
11:53AM 51.1125 1.9267 112° Southeast 528 608 35,000  Level FlightAware ADS-B
11:53AM 51.1060 1.9516 113° Southeast 528 608 35,000  Level FlightAware ADS-B (EGLC / LCY)
11:53AM 51.1031 1.9630 113° Southeast 527 606 35,000  Level FlightAware ADS-B (EGLF / FAB)
11:53AM 51.0840 2.0363 113° Southeast 526 605 35,000  Level FlightAware ADS-B
11:53AM 51.0721 2.0877 107° East 531 611 35,000  Level FlightAware ADS-B
11:54AM 51.0639 2.1342 104° East 531 611 35,000  Level FlightAware ADS-B (EGHO)
11:54AM 51.0460 2.2380 107° East 531 611 35,000  Level FlightAware ADS-B
11:54AM 51.0480 2.2265 105° East 532 612 35,000  Level FlightAware ADS-B (EGLF / FAB)
11:54AM 51.0381 2.2913 102° East 535 616 35,000  Level FlightAware ADS-B
11:54AM 51.0365 2.3031 102° East 535 616 35,000  Level FlightAware ADS-B (EGKK / LGW)
11:55AM 51.0193 2.4313 102° East 533 613 35,000  Level FlightAware ADS-B (EGLF / FAB)
11:55AM 51.0040 2.5414 112° Southeast 523 602 35,000  Level FlightAware ADS-B (EHRD / RTM)
11:56AM 50.9805 2.7144 102° East 534 615 35,000  Level FlightAware ADS-B (EGHO)
11:56AM 50.9767 2.7431 102° East 534 615 35,000  Level FlightAware ADS-B (KAUN)
11:57AM 50.9711 2.7851 102° East 533 613 35,000  Level FlightAware ADS-B (EGLC / LCY)
11:57AM 50.9700 2.7933 102° East 532 612 35,000  Level FlightAware ADS-B (EGLF / FAB)
11:58AM 50.9149 3.1927 102° East 530 610 35,000  Level FlightAware UK
11:59AM 50.9228 3.1362 102° East 530 610 35,000 -480 Level FlightAware ADS-B
11:59AM 50.9085 3.2384 102° East 529 609 34,500 -780 Descending FlightAware ADS-B (EGLF / FAB)
12:00PM 50.8683 3.5280 103° East 534 615 34,000 -360 Descending FlightAware ADS-B
12:01PM 50.8391 3.7306 102° East 536 617 34,000  Level FlightAware ADS-B (KAUN)
12:01PM 50.8213 3.8351 106° East 529 609 34,000 -180 Level FlightAware ADS-B (KAUN)
12:02PM 50.8053 3.9183 106° East 529 609 33,900 -1,140 Descending FlightAware ADS-B (KAUN)
12:02PM 50.7882 4.0067 108° East 532 612 33,000 -1,500 Descending FlightAware ADS-B
12:03PM 50.7656 4.1206 106° East 529 609 32,500 -1,620 Descending FlightAware ADS-B (KAUN)
12:03PM 50.7330 4.2923 106° East 512 589 31,200 -1,860 Descending FlightAware UK
12:03PM 50.7464 4.2193 106° East 509 586 31,100 -1,740 Descending FlightAware ADS-B (EHRD / RTM)
12:04PM 50.7014 4.4772 99° East 511 588 29,500 -1,500 Descending FlightAware ADS-B (EHRD / RTM)
12:05PM 50.6895 4.6025 98° East 508 585 29,000 -1,140 Descending FlightAware ADS-B (KAUN)
12:05PM 50.6866 4.6362 97° East 503 579 28,700 -1,800 Descending FlightAware ADS-B (KAUN)
12:05PM 50.6840 4.6650 97° East 503 579 28,500 -1,860 Descending FlightAware ADS-B (KAUN)
12:05PM 50.6728 4.7902 98° East 500 575 27,600 -1,740 Descending FlightAware ADS-B (EHRD / RTM)
12:06PM 50.6668 4.8601 99° East 495 570 26,800 -1,680 Descending FlightAware ADS-B (EHRD / RTM)
12:07PM 50.6470 5.0123 102° East 488 562 25,800 -1,620 Descending FlightAware ADS-B (EHRD / RTM)
12:07PM 50.6404 5.1319 93° East 485 558 24,800 -2,160 Descending FlightAware ADS-B (EDKL)
12:07PM 50.6386 5.1851 94° East 481 554 24,100 -3,420 Descending FlightAware ADS-B (EHRD / RTM)
12:08PM 50.6352 5.2245 102° East 472 543 23,900 -1,140 Descending FlightAware ADS-B (EHRD / RTM)
12:08PM 50.6229 5.3207 101° East 469 540 23,400 -1,380 Descending FlightAware ADS-B (EHRD / RTM)
12:09PM 50.6179 5.3592 102° East 468 539 22,500 -1,560 Descending FlightAware ADS-B (EHRD / RTM)
12:09PM 50.5891 5.5722 96° East 500 575 21,300 -1,260 Descending FlightAware ADS-B (EDKL)
12:10PM 50.5854 5.6252 96° East 500 575 21,200 -1,380 Descending FlightAware ADS-B (KAUN)
12:10PM 50.5850 5.7100 88° East 510 587 20,500 -2,400 Descending FlightAware ADS-B (KAUN)
12:10PM 50.5854 5.7272 88° East 509 586 19,700 -1,620 Descending FlightAware ADS-B (EHRD / RTM)
12:11PM 50.5892 5.9341 89° East 494 568 19,000 -1,320 Descending FlightAware ADS-B (EDKL)
12:11PM 50.5908 6.0318 88° East 486 559 18,100 -1,440 Descending FlightAware ADS-B (EDKL)
12:12PM 50.5912 6.0512 88° East 485 558 18,100 -1,560 Level FlightAware ADS-B (KAUN)
12:12PM 50.5919 6.0924 88° East 476 548 16,600 -1,740 Descending FlightAware ADS-B (EDKL)
12:13PM 50.5966 6.3645 89° East 466 536 15,500 -1,620 Descending FlightAware ADS-B (EDKL)
12:14PM 50.5985 6.5102 89° East 460 529 14,200 -1,800 Descending FlightAware ADS-B (EDKL)
12:15PM 50.6007 6.6627 81° East 451 519 12,500 -1,980 Descending FlightAware ADS-B (EDKL)
12:15PM 50.6146 6.8062 81° East 435 501 11,600 -2,220 Descending FlightAware ADS-B (EDKL)
12:16PM 50.6237 6.9005 82° East 424 488 10,300 -2,040 Descending FlightAware ADS-B (EDKL)
12:16PM 50.6290 6.9598 82° East 412 474 9,900 -1,080 Descending FlightAware ADS-B (EDKL)
12:16PM 50.6333 7.0087 82° East 390 449 9,600 -1,200 Descending FlightAware ADS-B (EDKL)
12:17PM 50.6371 7.0501 82° East 372 428 9,200 -1,200 Descending FlightAware ADS-B (EDKL)
12:17PM 50.6397 7.0994 87° East 352 405 9,000 -840 Descending FlightAware ADS-B (EDKL)
12:19PM 50.8643 7.1424 North  Level Estimated
12:20PM 50.8659 7.1427 90° East  Level Estimated
12:21PM 50.8659 7.1427 90° East  Level Estimated
12:22PM 50.8659 7.1427 90° East  Level Estimated
12:23PM 50.8659 7.1427 90° East  Level Estimated
12:24PM 50.8659 7.1427 90° East  Level Estimated
12:25PM 50.8659 7.1427 90° East  Level Estimated
12:26PM 50.8659 7.1427 90° East  Level Estimated
12:27PM 50.8659 7.1427 90° East  Level Estimated
12:28PM 50.8659 7.1427 90° East  Level Estimated
12:29PM 50.8659 7.1427 90° East  Level Estimated
12:30PM 50.8659 7.1427 90° East  Level Estimated
12:31PM 50.8659 7.1427 90° East  Level Estimated
12:32PM 50.8659 7.1427 90° East  Level Estimated
12:33PM 50.8659 7.1427 90° East  Level Estimated
12:34PM 50.8659 7.1427 90° East  Level Estimated
12:35PM 50.8659 7.1427 90° East  Level Estimated
12:36PM 50.8659 7.1427 90° East  Level Estimated
12:37PM 50.8659 7.1427 90° East  Level Estimated
12:38PM 50.8659 7.1427 90° East  Level Estimated
12:39PM 50.8659 7.1427 90° East  Level Estimated
12:40PM 50.8659 7.1427 90° East  Level Estimated
12:41PM 50.8659 7.1427 90° East  Level Estimated
12:42PM 50.8659 7.1427 90° East  Level Estimated
12:43PM 50.8659 7.1427 90° East  Level Estimated
12:44PM 50.8659 7.1427 90° East  Level Estimated
12:45PM 50.8659 7.1427 90° East  Level Estimated
12:46PM 50.8659 7.1427 90° East  Level Estimated